Time;durP1;ratioP1;P1;durP2;ratioP2;P2;SDS_P1;SDS_P2;PMS_P1;PMS_P2;Temp;Humidity;BMP_temperature;BMP_pressure;BME280_temperature;BME280_humidity;BME280_pressure;Samples;Min_cycle;Max_cycle;Signal;HPM_P1;HPM_P2
2023/05/30 00:03:10;;;;;;;;;;;21.90;46.90;;;;;;8430751;28;20032;-43
2023/05/30 00:07:10;;;;;;;8.83;2.70;;;21.80;47.00;;;;;;8429707;28;19920;-43
2023/05/30 00:11:13;;;;;;;4.00;2.25;;;21.80;47.20;;;;;;8430162;28;20036;-44
2023/05/30 00:15:16;;;;;;;7.78;2.70;;;21.80;47.10;;;;;;8429531;28;20040;-43
2023/05/30 00:19:18;;;;;;;5.95;2.50;;;21.80;47.20;;;;;;8429302;28;20085;-44
2023/05/30 00:23:20;;;;;;;5.55;2.08;;;21.80;47.20;;;;;;8429541;28;20046;-43
2023/05/30 00:27:21;;;;;;;6.35;2.25;;;21.70;47.70;;;;;;8429073;28;20570;-44
2023/05/30 00:31:21;;;;;;;8.40;2.40;;;21.70;47.10;;;;;;8428873;28;20397;-43
2023/05/30 00:35:22;;;;;;;5.68;2.40;;;21.70;47.10;;;;;;8428971;28;20378;-44
2023/05/30 00:39:23;;;;;;;9.05;2.30;;;21.80;47.00;;;;;;8429123;28;20600;-44
2023/05/30 00:43:23;;;;;;;6.53;2.92;;;21.80;47.00;;;;;;8393775;28;20212;-43
2023/05/30 00:47:25;;;;;;;5.60;2.47;;;21.80;47.00;;;;;;8428542;28;20111;-43
2023/05/30 00:51:30;;;;;;;4.95;2.13;;;21.80;47.00;;;;;;8428173;28;20368;-43
2023/05/30 00:55:32;;;;;;;5.90;2.88;;;21.80;47.10;;;;;;8428260;28;20033;-43
2023/05/30 00:59:33;;;;;;;10.60;2.60;;;21.80;47.10;;;;;;8427601;28;20039;-43
2023/05/30 01:03:35;;;;;;;4.95;1.90;;;21.70;47.10;;;;;;8427531;28;20081;-43
2023/05/30 01:07:36;;;;;;;4.15;2.38;;;21.70;47.00;;;;;;8393270;28;20034;-45
2023/05/30 01:12:01;;;;;;;6.30;2.53;;;21.80;47.10;;;;;;8427774;28;20093;-43
2023/05/30 01:16:08;;;;;;;5.53;2.05;;;21.80;47.10;;;;;;8427292;28;20020;-43
2023/05/30 01:20:14;;;;;;;7.20;1.88;;;21.70;47.00;;;;;;8427406;28;20062;-44
2023/05/30 01:24:44;;;;;;;4.57;1.95;;;21.70;47.00;;;;;;8427122;28;20085;-43
2023/05/30 01:28:48;;;;;;;5.32;2.45;;;21.70;47.20;;;;;;8425337;28;20040;-43
2023/05/30 01:32:49;;;;;;;5.65;2.10;;;21.70;47.20;;;;;;8427181;28;20059;-43
2023/05/30 01:36:50;;;;;;;4.63;2.30;;;21.70;47.30;;;;;;8427057;28;20059;-43
2023/05/30 01:40:53;;;;;;;7.75;2.63;;;21.70;47.20;;;;;;8427362;28;20125;-43
2023/05/30 01:45:09;;;;;;;5.40;2.35;;;21.70;47.10;;;;;;8426870;28;20099;-44
2023/05/30 01:49:32;;;;;;;5.35;2.38;;;21.70;47.20;;;;;;8426588;28;20027;-44
2023/05/30 01:53:38;;;;;;;3.83;2.00;;;21.70;47.30;;;;;;8426738;28;20032;-43
2023/05/30 01:57:47;;;;;;;4.10;1.98;;;21.60;47.40;;;;;;8426573;28;20030;-43
2023/05/30 02:01:47;;;;;;;5.43;2.13;;;21.60;47.40;;;;;;8427006;28;20111;-44
2023/05/30 02:05:48;;;;;;;7.22;2.28;;;21.60;47.40;;;;;;8408097;28;20044;-44
2023/05/30 02:09:49;;;;;;;3.83;2.10;;;21.60;47.40;;;;;;8426612;28;20100;-44
2023/05/30 02:13:50;;;;;;;4.65;2.15;;;21.60;47.40;;;;;;8435063;28;20028;-44
2023/05/30 02:17:51;;;;;;;5.80;2.78;;;21.70;47.40;;;;;;8437700;28;20512;-43
2023/05/30 02:21:51;;;;;;;4.60;2.40;;;21.70;47.30;;;;;;8437048;28;20410;-43
2023/05/30 02:25:52;;;;;;;4.40;2.30;;;21.70;47.30;;;;;;8437125;28;20032;-44
2023/05/30 02:29:53;;;;;;;3.47;2.03;;;21.70;47.40;;;;;;8437249;28;20432;-43
2023/05/30 02:33:53;;;;;;;4.53;2.05;;;21.70;47.40;;;;;;8437171;28;20481;-43
2023/05/30 02:37:54;;;;;;;3.88;1.98;;;21.60;47.40;;;;;;8437306;28;20028;-44
2023/05/30 02:41:55;;;;;;;3.50;2.03;;;21.60;47.40;;;;;;8437242;28;20081;-43
2023/05/30 02:45:55;;;;;;;3.55;1.90;;;21.60;47.50;;;;;;8436897;28;20039;-43
2023/05/30 02:49:56;;;;;;;4.35;2.42;;;21.60;47.50;;;;;;8436823;28;20040;-43
2023/05/30 02:53:56;;;;;;;4.53;2.00;;;21.60;47.60;;;;;;8437187;28;20161;-43
2023/05/30 02:57:57;;;;;;;4.32;2.20;;;21.60;47.60;;;;;;8436915;28;20435;-44
2023/05/30 03:01:58;;;;;;;5.47;2.25;;;21.60;47.60;;;;;;8436864;28;20109;-43
2023/05/30 03:05:59;;;;;;;3.17;1.95;;;21.60;47.50;;;;;;8436466;28;20073;-43
2023/05/30 03:10:00;;;;;;;;;;;21.60;47.60;;;;;;8437566;28;20043;-43
2023/05/30 03:14:00;;;;;;;4.00;1.67;;;21.60;47.60;;;;;;8436711;28;19904;-43
2023/05/30 03:18:01;;;;;;;6.18;2.58;;;21.60;47.60;;;;;;8436630;28;20027;-43
2023/05/30 03:22:02;;;;;;;6.03;1.95;;;21.60;47.50;;;;;;8436555;28;20055;-43
2023/05/30 03:26:03;;;;;;;;;;;21.60;48.10;;;;;;8430963;28;20031;-44
2023/05/30 03:30:05;;;;;;;4.17;2.00;;;21.60;47.60;;;;;;8431155;28;19978;-44
2023/05/30 03:34:06;;;;;;;3.08;2.05;;;21.60;47.70;;;;;;8430945;28;20028;-43
2023/05/30 03:38:06;;;;;;;3.30;1.67;;;21.50;47.80;;;;;;8430567;28;20024;-43
2023/05/30 03:42:07;;;;;;;5.97;3.03;;;21.50;47.90;;;;;;8396584;28;20035;-44
2023/05/30 03:46:08;;;;;;;3.33;1.90;;;21.50;47.90;;;;;;8430382;28;20404;-43
2023/05/30 03:50:08;;;;;;;4.05;1.88;;;21.50;48.00;;;;;;8430622;28;20035;-44
2023/05/30 03:54:09;;;;;;;2.78;2.00;;;21.50;48.00;;;;;;8430445;28;20023;-43
2023/05/30 03:58:10;;;;;;;3.00;1.65;;;21.40;48.00;;;;;;8430124;28;20055;-43
2023/05/30 04:02:10;;;;;;;3.08;1.63;;;21.40;48.10;;;;;;8411814;28;20035;-43
2023/05/30 04:06:11;;;;;;;3.13;1.80;;;21.40;48.60;;;;;;8411913;28;20458;-43
2023/05/30 04:10:12;;;;;;;3.63;2.20;;;21.50;48.00;;;;;;8430047;28;20052;-43
2023/05/30 04:14:13;;;;;;;3.08;2.20;;;21.50;47.90;;;;;;8429454;28;20027;-44
2023/05/30 04:18:13;;;;;;;2.90;2.08;;;21.60;47.80;;;;;;8429405;28;20024;-43
2023/05/30 04:22:14;;;;;;;4.32;1.90;;;21.60;47.70;;;;;;8429608;28;20034;-43
2023/05/30 04:26:15;;;;;;;3.67;1.40;;;21.60;47.70;;;;;;8428892;28;20103;-44
2023/05/30 04:30:16;;;;;;;;;;;21.60;47.80;;;;;;8429609;28;20827;-43
2023/05/30 04:34:17;;;;;;;2.42;1.90;;;21.60;47.80;;;;;;8428696;28;19907;-44
2023/05/30 04:38:20;;;;;;;;;;;21.60;47.80;;;;;;8428859;28;20032;-43
2023/05/30 04:42:20;;;;;;;3.30;2.10;;;21.60;47.70;;;;;;8429039;28;19904;-44
2023/05/30 04:46:24;;;;;;;3.92;2.15;;;21.60;47.80;;;;;;8428762;28;20040;-43
2023/05/30 04:50:26;;;;;;;2.30;1.40;;;21.60;47.80;;;;;;8428318;28;20020;-44
2023/05/30 04:54:27;;;;;;;3.65;1.30;;;21.60;47.80;;;;;;8428375;28;20039;-43
2023/05/30 04:58:27;;;;;;;3.38;1.73;;;21.60;47.80;;;;;;8428172;28;20055;-43
2023/05/30 05:02:28;;;;;;;3.53;1.60;;;21.60;47.80;;;;;;8428201;28;20024;-43
2023/05/30 05:06:29;;;;;;;3.20;1.70;;;21.60;47.80;;;;;;8427980;28;20059;-44
2023/05/30 05:10:30;;;;;;;3.70;1.60;;;21.60;47.80;;;;;;8428218;28;20024;-44
2023/05/30 05:14:30;;;;;;;1.83;1.40;;;21.60;47.90;;;;;;8427877;28;20039;-43
2023/05/30 05:18:31;;;;;;;2.60;1.77;;;21.60;47.90;;;;;;8427725;28;20330;-43
2023/05/30 05:22:33;;;;;;;2.75;1.55;;;21.60;47.90;;;;;;8427288;28;20024;-43
2023/05/30 05:26:33;;;;;;;;;;;21.50;47.80;;;;;;8427910;28;20433;-43
2023/05/30 05:30:34;;;;;;;2.50;1.33;;;21.60;47.90;;;;;;8427229;28;20159;-44
2023/05/30 05:34:35;;;;;;;3.88;1.77;;;21.60;47.90;;;;;;8427407;28;20664;-41
2023/05/30 05:38:36;;;;;;;1.88;1.65;;;21.60;47.90;;;;;;8426817;28;20135;-43
2023/05/30 05:42:36;;;;;;;3.58;1.63;;;21.60;48.00;;;;;;8427339;28;20123;-43
2023/05/30 05:46:37;;;;;;;1.95;1.48;;;21.50;48.00;;;;;;8426355;28;20036;-43
2023/05/30 05:50:38;;;;;;;3.53;1.40;;;21.60;48.00;;;;;;8426718;28;20039;-43
2023/05/30 05:54:38;;;;;;;3.08;1.73;;;21.50;48.10;;;;;;8427142;28;20726;-43
2023/05/30 05:58:39;;;;;;;2.63;1.83;;;21.50;48.10;;;;;;8426683;28;20028;-43
2023/05/30 06:02:40;;;;;;;1.92;1.23;;;21.50;48.10;;;;;;8408209;28;20281;-44
2023/05/30 06:06:40;;;;;;;3.55;1.70;;;21.50;48.10;;;;;;8426538;28;20055;-44
2023/05/30 06:10:41;;;;;;;3.60;1.55;;;21.50;48.10;;;;;;8426567;28;20035;-43
2023/05/30 06:14:42;;;;;;;2.72;1.60;;;21.50;48.10;;;;;;8426449;28;20026;-43
2023/05/30 06:18:42;;;;;;;2.20;1.53;;;21.60;48.00;;;;;;8426221;28;20024;-43
2023/05/30 06:22:43;;;;;;;4.55;1.63;;;21.60;48.00;;;;;;8426178;28;20959;-43
2023/05/30 06:26:43;;;;;;;2.67;1.60;;;21.60;48.00;;;;;;8426237;28;20428;-43
2023/05/30 06:30:44;;;;;;;1.95;1.70;;;21.60;48.10;;;;;;8425969;28;20529;-43
2023/05/30 06:34:45;;;;;;;1.10;1.00;;;21.60;48.00;;;;;;8426028;28;20020;-43
2023/05/30 06:38:46;;;;;;;;;;;21.60;48.00;;;;;;8426530;28;20029;-43
2023/05/30 06:42:47;;;;;;;3.90;1.90;;;21.50;48.10;;;;;;8408332;28;20010;-43
2023/05/30 06:46:47;;;;;;;2.10;1.45;;;21.60;48.10;;;;;;8425957;28;20448;-43
2023/05/30 06:50:48;;;;;;;2.05;1.50;;;21.50;48.20;;;;;;8425998;28;20493;-44
2023/05/30 06:54:49;;;;;;;1.70;1.20;;;21.50;48.30;;;;;;8425576;28;20127;-44
2023/05/30 06:58:49;;;;;;;1.83;1.50;;;21.50;48.30;;;;;;8427528;28;20032;-44
2023/05/30 07:02:50;;;;;;;1.90;1.20;;;21.50;48.30;;;;;;8432118;28;20024;-43
2023/05/30 07:06:51;;;;;;;2.22;1.63;;;21.50;48.30;;;;;;8431533;28;20130;-44
2023/05/30 07:10:51;;;;;;;2.17;1.48;;;21.50;48.30;;;;;;8432269;28;20043;-43
2023/05/30 07:14:52;;;;;;;2.03;1.58;;;21.50;48.30;;;;;;8431541;28;20537;-44
2023/05/30 07:18:53;;;;;;;2.40;1.52;;;21.50;48.40;;;;;;8431378;28;20050;-43
2023/05/30 07:22:53;;;;;;;2.28;1.25;;;21.40;48.40;;;;;;8431281;28;20095;-44
2023/05/30 07:26:54;;;;;;;1.88;1.42;;;21.50;48.30;;;;;;8431334;28;20135;-43
2023/05/30 07:30:54;;;;;;;2.00;1.30;;;21.50;48.30;;;;;;8446599;28;20043;-44
2023/05/30 07:34:55;;;;;;;2.28;1.50;;;21.50;48.50;;;;;;8431213;28;20024;-44
2023/05/30 07:38:56;;;;;;;2.40;1.23;;;21.60;48.30;;;;;;8430734;28;20047;-44
2023/05/30 07:42:56;;;;;;;1.98;1.25;;;21.50;48.30;;;;;;8431152;28;20059;-43
2023/05/30 07:46:57;;;;;;;2.13;1.40;;;21.60;48.30;;;;;;8430678;28;20032;-43
2023/05/30 07:50:58;;;;;;;2.42;1.30;;;21.60;48.30;;;;;;8430306;28;20028;-43
2023/05/30 07:54:58;;;;;;;1.90;1.08;;;21.60;48.20;;;;;;8430690;28;20115;-44
2023/05/30 07:58:59;;;;;;;2.42;1.42;;;21.60;48.20;;;;;;8430126;28;20028;-43
2023/05/30 08:02:59;;;;;;;2.72;1.40;;;21.60;48.20;;;;;;8430268;28;20024;-44
2023/05/30 08:07:02;;;;;;;1.50;1.15;;;21.60;48.20;;;;;;8429924;28;20040;-44
2023/05/30 08:11:03;;;;;;;2.00;1.40;;;21.60;48.20;;;;;;8429758;28;20058;-43
2023/05/30 08:15:04;;;;;;;2.03;1.20;;;21.60;48.20;;;;;;8429721;28;20154;-43
2023/05/30 08:19:05;;;;;;;2.75;1.95;;;21.60;48.20;;;;;;8430171;28;20461;-43
2023/05/30 08:23:06;;;;;;;1.98;1.33;;;21.60;48.30;;;;;;8429416;28;20450;-43
2023/05/30 08:27:08;;;;;;;2.03;1.10;;;21.50;48.40;;;;;;8429410;28;20035;-44
2023/05/30 08:31:09;;;;;;;1.25;1.13;;;21.50;48.50;;;;;;8410953;28;20028;-43
2023/05/30 08:35:09;;;;;;;4.00;1.50;;;21.40;48.50;;;;;;8429073;28;20020;-43
2023/05/30 08:39:12;;;;;;;1.42;1.20;;;21.50;48.50;;;;;;8444784;28;20289;-43
2023/05/30 08:43:13;;;;;;;1.70;1.38;;;21.50;48.60;;;;;;8410926;28;20028;-44
2023/05/30 08:47:16;;;;;;;1.52;1.30;;;21.40;48.50;;;;;;8428582;28;20024;-44
2023/05/30 08:51:19;;;;;;;1.42;1.05;;;21.50;48.60;;;;;;8428538;28;20388;-44
2023/05/30 08:55:24;;;;;;;2.38;1.42;;;21.50;48.60;;;;;;8428380;28;20020;-44
2023/05/30 08:59:26;;;;;;;1.52;1.20;;;21.40;48.60;;;;;;8428325;28;20093;-43
2023/05/30 09:03:28;;;;;;;1.75;1.20;;;21.40;48.60;;;;;;8427940;28;20039;-43
2023/05/30 09:07:29;;;;;;;1.65;1.30;;;21.40;48.60;;;;;;8428103;28;20424;-43
2023/05/30 09:11:29;;;;;;;1.55;1.05;;;21.40;48.50;;;;;;8428093;28;20389;-43
2023/05/30 09:15:30;;;;;;;2.42;1.30;;;21.40;48.50;;;;;;8427954;28;20089;-44
2023/05/30 09:19:31;;;;;;;1.45;1.00;;;21.50;48.60;;;;;;8409714;28;20032;-44
2023/05/30 09:23:33;;;;;;;1.30;0.90;;;21.40;48.60;;;;;;8426873;28;20028;-44
2023/05/30 09:27:35;;;;;;;;;;;21.50;48.60;;;;;;8427875;28;20485;-43
2023/05/30 09:31:37;;;;;;;1.25;1.05;;;21.50;48.60;;;;;;8427419;28;19908;-43
2023/05/30 09:35:38;;;;;;;1.70;1.17;;;21.40;49.20;;;;;;8427224;28;20474;-43
2023/05/30 09:39:39;;;;;;;1.02;0.90;;;21.40;48.70;;;;;;8409425;28;20539;-44
2023/05/30 09:43:39;;;;;;;1.75;1.25;;;21.40;48.60;;;;;;8427121;28;20416;-43
2023/05/30 09:47:45;;;;;;;1.63;1.10;;;21.40;48.80;;;;;;8426927;28;20389;-43
2023/05/30 09:51:48;;;;;;;1.98;1.00;;;21.40;48.80;;;;;;8426802;28;20689;-44
2023/05/30 09:55:49;;;;;;;2.15;1.30;;;21.40;48.80;;;;;;8426993;28;20047;-43
2023/05/30 09:59:50;;;;;;;1.50;1.05;;;21.30;48.90;;;;;;8426619;28;20042;-44
2023/05/30 10:03:51;;;;;;;1.33;1.20;;;21.30;49.00;;;;;;8426553;28;20055;-43
2023/05/30 10:07:56;;;;;;;1.80;1.30;;;21.30;49.00;;;;;;8426722;28;20378;-43
2023/05/30 10:11:58;;;;;;;2.17;1.48;;;21.30;49.10;;;;;;8426588;28;20344;-43
2023/05/30 10:16:02;;;;;;;1.33;1.17;;;21.20;49.10;;;;;;8408484;28;20111;-42
2023/05/30 10:20:07;;;;;;;1.35;1.17;;;21.20;49.10;;;;;;8426290;28;20107;-43
2023/05/30 10:24:10;;;;;;;1.25;1.00;;;21.20;49.10;;;;;;8408168;28;20048;-44
2023/05/30 10:28:18;;;;;;;1.67;1.00;;;21.20;49.10;;;;;;8426259;28;20039;-44
2023/05/30 10:32:23;;;;;;;1.83;1.13;;;21.30;49.20;;;;;;8427257;28;20064;-43
2023/05/30 10:36:25;;;;;;;1.80;1.30;;;21.30;49.10;;;;;;8432906;28;20031;-43
2023/05/30 10:40:25;;;;;;;;;;;21.30;49.60;;;;;;8433606;28;20032;-43
2023/05/30 10:44:46;;;;;;;1.03;0.93;;;21.30;49.10;;;;;;8432650;28;19995;-42
2023/05/30 10:49:04;;;;;;;2.78;1.33;;;21.30;49.10;;;;;;8448470;28;20065;-44
2023/05/30 10:53:25;;;;;;;1.50;1.38;;;21.30;49.00;;;;;;8432314;28;20082;-44
2023/05/30 10:57:31;;;;;;;1.30;1.00;;;21.30;49.10;;;;;;8432110;28;20071;-43
2023/05/30 11:01:32;;;;;;;1.75;1.30;;;21.30;49.10;;;;;;8413899;28;20046;-43
2023/05/30 11:05:33;;;;;;;1.42;1.08;;;21.30;49.10;;;;;;8447645;28;20052;-43
2023/05/30 11:09:42;;;;;;;1.88;1.30;;;21.30;49.10;;;;;;8432287;28;20048;-43
2023/05/30 11:13:55;;;;;;;2.17;1.30;;;21.30;49.10;;;;;;8432083;28;20024;-44
2023/05/30 11:17:56;;;;;;;1.13;1.02;;;21.30;49.10;;;;;;8431566;28;20030;-43
2023/05/30 11:22:08;;;;;;;1.50;1.05;;;21.30;49.10;;;;;;8431562;28;20032;-43
2023/05/30 11:26:18;;;;;;;1.45;0.95;;;21.30;49.10;;;;;;8431202;28;20036;-44
2023/05/30 11:30:21;;;;;;;1.42;0.98;;;21.30;49.10;;;;;;8430968;28;20063;-45
2023/05/30 11:34:22;;;;;;;1.73;1.20;;;21.30;49.60;;;;;;8431261;28;20532;-43
2023/05/30 11:38:24;;;;;;;1.20;1.10;;;21.40;49.10;;;;;;8430966;28;20028;-43
2023/05/30 11:42:32;;;;;;;1.45;1.05;;;21.30;49.10;;;;;;8430733;28;20166;-44
2023/05/30 11:46:32;;;;;;;1.33;1.02;;;21.30;49.10;;;;;;8430063;28;20032;-42
2023/05/30 11:50:40;;;;;;;1.40;1.30;;;21.30;49.00;;;;;;8430547;28;20060;-44
2023/05/30 11:54:41;;;;;;;1.42;1.10;;;21.30;49.00;;;;;;8430556;28;20024;-43
2023/05/30 11:58:42;;;;;;;1.00;0.80;;;21.30;49.10;;;;;;8430291;28;20469;-43
2023/05/30 12:02:43;;;;;;;1.50;1.13;;;21.30;49.10;;;;;;8430285;28;20121;-44
2023/05/30 12:06:46;;;;;;;1.92;1.13;;;21.30;49.10;;;;;;8430103;28;20059;-43
2023/05/30 12:10:51;;;;;;;1.00;0.90;;;21.30;49.10;;;;;;8429923;28;20118;-43
2023/05/30 12:14:52;;;;;;;1.40;1.30;;;21.30;49.10;;;;;;8429727;28;20028;-43
2023/05/30 12:18:53;;;;;;;;;;;21.30;49.10;;;;;;8430991;28;20051;-44
2023/05/30 12:22:54;;;;;;;1.17;0.95;;;21.30;49.10;;;;;;8429343;28;20332;-43
2023/05/30 12:26:57;;;;;;;1.00;0.90;;;21.30;49.10;;;;;;8429380;28;20031;-43
2023/05/30 12:30:57;;;;;;;1.27;1.13;;;21.30;49.10;;;;;;8429220;28;20097;-44
2023/05/30 12:34:58;;;;;;;1.15;0.93;;;21.40;49.10;;;;;;8429111;28;20029;-43
2023/05/30 12:38:59;;;;;;;1.67;1.00;;;21.40;49.10;;;;;;8410698;28;20028;-43
2023/05/30 12:43:00;;;;;;;1.52;1.00;;;21.40;49.00;;;;;;8429250;28;20254;-43
2023/05/30 12:47:01;;;;;;;0.85;0.85;;;21.40;49.00;;;;;;8428659;28;20036;-44
2023/05/30 12:51:02;;;;;;;1.38;0.90;;;21.40;49.10;;;;;;8428984;28;20063;-44
2023/05/30 12:55:03;;;;;;;1.15;0.85;;;21.40;49.10;;;;;;8428399;28;20474;-43
2023/05/30 12:59:04;;;;;;;1.15;0.93;;;21.40;49.20;;;;;;8409173;28;20031;-43
2023/05/30 13:03:05;;;;;;;1.90;1.13;;;21.40;49.10;;;;;;8428411;28;20504;-43
2023/05/30 13:07:11;;;;;;;1.13;1.00;;;21.40;49.10;;;;;;8427803;28;20097;-43
2023/05/30 13:11:12;;;;;;;1.27;0.95;;;21.40;49.10;;;;;;8428031;28;20085;-43
2023/05/30 13:15:12;;;;;;;1.42;1.10;;;21.40;49.00;;;;;;8427881;28;20150;-43
2023/05/30 13:19:13;;;;;;;1.05;0.90;;;21.40;49.00;;;;;;8427591;28;20054;-43
2023/05/30 13:23:14;;;;;;;1.90;1.20;;;21.40;49.50;;;;;;8427752;28;20028;-44
2023/05/30 13:27:14;;;;;;;1.30;1.00;;;21.40;49.10;;;;;;8427534;28;20024;-43
2023/05/30 13:31:15;;;;;;;2.38;1.02;;;21.40;49.00;;;;;;8427754;28;20427;-44
2023/05/30 13:35:16;;;;;;;1.30;1.17;;;21.40;49.00;;;;;;8427371;28;20035;-44
2023/05/30 13:39:17;;;;;;;1.45;1.00;;;21.40;49.00;;;;;;8427604;28;20673;-44
2023/05/30 13:43:18;;;;;;;1.08;1.00;;;21.40;49.00;;;;;;8427065;28;20039;-43
2023/05/30 13:47:18;;;;;;;1.00;0.90;;;21.40;48.90;;;;;;8409027;28;20494;-44
2023/05/30 13:51:19;;;;;;;1.10;1.00;;;21.50;49.00;;;;;;8427144;28;20028;-43
2023/05/30 13:55:20;;;;;;;1.35;0.93;;;21.50;48.90;;;;;;8426767;28;20059;-43
2023/05/30 13:59:21;;;;;;;1.63;1.00;;;21.50;49.00;;;;;;8426789;28;20036;-43
2023/05/30 14:03:22;;;;;;;2.13;1.10;;;21.50;49.00;;;;;;8427282;28;20024;-43
2023/05/30 14:07:22;;;;;;;1.20;1.00;;;21.50;48.90;;;;;;8426051;28;20047;-43
2023/05/30 14:11:23;;;;;;;0.80;0.80;;;21.50;48.90;;;;;;8426812;28;20468;-44
2023/05/30 14:15:32;;;;;;;1.25;0.98;;;21.50;49.00;;;;;;8426553;28;20569;-43
2023/05/30 14:19:33;;;;;;;0.88;0.82;;;21.50;48.90;;;;;;8426460;28;20028;-43
2023/05/30 14:23:35;;;;;;;;;;;21.50;48.90;;;;;;8426867;28;20039;-43
2023/05/30 14:27:36;;;;;;;1.02;0.85;;;21.50;48.90;;;;;;8426202;28;19904;-43
2023/05/30 14:31:37;;;;;;;1.60;1.08;;;21.50;48.90;;;;;;8426187;28;20054;-43
2023/05/30 14:35:37;;;;;;;1.35;1.00;;;21.50;48.90;;;;;;8408211;28;20032;-43
2023/05/30 14:39:38;;;;;;;1.20;1.10;;;21.50;48.80;;;;;;8426191;28;20040;-43
2023/05/30 14:43:38;;;;;;;1.70;1.00;;;21.50;48.90;;;;;;8426085;28;20282;-43
2023/05/30 14:47:39;;;;;;;1.25;1.08;;;21.50;49.00;;;;;;8425923;28;20300;-43
2023/05/30 14:51:40;;;;;;;1.33;0.95;;;21.50;48.90;;;;;;8425964;28;20040;-43
2023/05/30 14:55:41;;;;;;;0.90;0.77;;;21.50;48.90;;;;;;8425747;28;20024;-43
2023/05/30 14:59:42;;;;;;;1.10;0.90;;;21.50;48.90;;;;;;8425906;28;20574;-43
2023/05/30 15:03:42;;;;;;;1.15;0.85;;;21.50;49.00;;;;;;8425793;28;20042;-43
2023/05/30 15:07:43;;;;;;;1.15;0.95;;;21.50;49.00;;;;;;8425487;28;20502;-43
2023/05/30 15:11:44;;;;;;;1.10;1.00;;;21.50;49.10;;;;;;8426033;28;20066;-43
2023/05/30 15:15:45;;;;;;;1.08;0.90;;;21.50;49.10;;;;;;8425583;28;20025;-44
2023/05/30 15:19:47;;;;;;;1.50;1.00;;;21.40;49.20;;;;;;8433232;27;20031;-43
2023/05/30 15:23:47;;;;;;;1.23;1.10;;;21.40;49.80;;;;;;8463825;28;20027;-43
2023/05/30 15:27:49;;;;;;;2.13;1.27;;;21.40;50.10;;;;;;8464167;28;20035;-44
2023/05/30 15:31:50;;;;;;;1.38;1.27;;;21.50;50.10;;;;;;8463422;28;20043;-43
2023/05/30 15:35:51;;;;;;;1.60;0.93;;;21.50;50.00;;;;;;8463690;28;20031;-43
2023/05/30 15:39:51;;;;;;;1.58;1.15;;;21.50;50.00;;;;;;8458329;28;20310;-43
2023/05/30 15:43:52;;;;;;;1.48;1.00;;;21.50;49.90;;;;;;8411161;28;20031;-43
2023/05/30 15:47:53;;;;;;;0.93;0.80;;;21.50;49.90;;;;;;8430092;28;20114;-44
2023/05/30 15:51:57;;;;;;;1.05;0.93;;;21.50;50.10;;;;;;8429577;28;20032;-44
2023/05/30 15:55:58;;;;;;;4.13;1.00;;;21.50;50.10;;;;;;8429495;28;20032;-43
2023/05/30 15:59:58;;;;;;;2.28;1.30;;;21.60;50.00;;;;;;8429129;28;20085;-44
2023/05/30 16:03:59;;;;;;;2.67;0.90;;;21.50;50.40;;;;;;8428904;28;20501;-44
2023/05/30 16:08:00;;;;;;;2.08;1.05;;;21.60;50.30;;;;;;8429392;28;20032;-43
2023/05/30 16:12:01;;;;;;;3.78;1.13;;;21.60;50.30;;;;;;8429649;28;20085;-44
2023/05/30 16:16:02;;;;;;;5.43;1.10;;;21.60;50.30;;;;;;8429381;28;20056;-44
2023/05/30 16:20:04;;;;;;;7.10;1.33;;;21.60;50.50;;;;;;8429944;28;20481;-44
2023/05/30 16:24:05;;;;;;;4.03;1.05;;;21.60;50.30;;;;;;8429591;28;20371;-44
2023/05/30 16:28:06;;;;;;;1.88;1.17;;;21.60;50.10;;;;;;8429153;28;20110;-44
2023/05/30 16:32:07;;;;;;;1.33;0.97;;;21.60;49.70;;;;;;8429393;28;20024;-44
2023/05/30 16:36:08;;;;;;;9.93;1.25;;;21.60;51.40;;;;;;8429112;28;20274;-44
2023/05/30 16:40:09;;;;;;;2.33;0.98;;;21.50;51.20;;;;;;8429252;28;20043;-44
2023/05/30 16:44:09;;;;;;;2.78;1.00;;;21.50;50.90;;;;;;8429102;28;20039;-45
2023/05/30 16:48:10;;;;;;;2.90;1.23;;;21.60;51.20;;;;;;8428936;28;20036;-44
2023/05/30 16:52:11;;;;;;;1.23;0.80;;;21.50;51.10;;;;;;8428751;28;20039;-44
2023/05/30 16:56:13;;;;;;;1.48;0.95;;;21.60;51.00;;;;;;8428600;28;20032;-44
2023/05/30 17:00:14;;;;;;;2.17;0.88;;;21.60;50.70;;;;;;8428176;28;20436;-44
2023/05/30 17:04:15;;;;;;;1.77;1.15;;;21.60;50.80;;;;;;8428232;28;20201;-44
2023/05/30 17:08:15;;;;;;;2.03;0.90;;;21.60;50.70;;;;;;8428191;28;20473;-43
2023/05/30 17:12:16;;;;;;;3.15;1.10;;;21.60;50.80;;;;;;8439265;27;20070;-42
2023/05/30 17:16:18;;;;;;;2.38;1.55;;;21.60;51.10;;;;;;8457502;27;20024;-42
2023/05/30 17:20:18;;;;;;;5.63;1.65;;;21.60;50.30;;;;;;8456947;27;20076;-42
2023/05/30 17:24:19;;;;;;;4.88;1.75;;;21.70;50.00;;;;;;8452886;27;20034;-42
2023/05/30 17:28:20;;;;;;;5.00;2.40;;;21.80;49.30;;;;;;8455383;27;20658;-43
2023/05/30 17:32:21;;;;;;;8.65;2.17;;;21.90;48.60;;;;;;8443339;27;20103;-43
2023/05/30 17:36:21;;;;;;;6.32;2.45;;;22.00;49.20;;;;;;8449472;27;20027;-44
2023/05/30 17:40:22;;;;;;;8.57;2.80;;;22.00;48.60;;;;;;8440326;27;20024;-44
2023/05/30 17:44:23;;;;;;;4.45;2.35;;;22.10;48.60;;;;;;8441177;27;20027;-42
2023/05/30 17:48:23;;;;;;;4.60;2.40;;;22.10;49.90;;;;;;8455340;27;20165;-42
2023/05/30 17:52:24;;;;;;;4.43;2.58;;;22.10;49.00;;;;;;8465428;27;20457;-42
2023/05/30 17:56:26;;;;;;;6.38;2.58;;;22.20;48.40;;;;;;8460987;27;20043;-45
2023/05/30 18:00:29;;;;;;;4.95;3.17;;;22.20;49.60;;;;;;8465989;27;20563;-43
2023/05/30 18:04:29;;;;;;;6.22;3.20;;;22.10;48.40;;;;;;8454532;27;20046;-46
2023/05/30 18:08:30;;;;;;;5.57;2.83;;;22.10;48.20;;;;;;8452287;27;20028;-45
2023/05/30 18:12:31;;;;;;;6.25;3.20;;;22.10;50.20;;;;;;8444024;28;20503;-42
2023/05/30 18:16:31;;;;;;;8.43;2.75;;;22.20;50.00;;;;;;8462378;28;20028;-43
2023/05/30 18:20:32;;;;;;;4.68;2.92;;;22.20;50.20;;;;;;8470881;28;20050;-43
2023/05/30 18:24:33;;;;;;;6.55;3.05;;;22.20;49.70;;;;;;8466120;27;20437;-43
2023/05/30 18:28:33;;;;;;;9.30;2.90;;;22.20;49.80;;;;;;8448363;28;20547;-42
2023/05/30 18:32:34;;;;;;;10.82;3.33;;;22.30;50.60;;;;;;8468086;28;20380;-42
2023/05/30 18:36:35;;;;;;;9.10;3.20;;;22.20;51.10;;;;;;8461923;27;20393;-43
2023/05/30 18:40:35;;;;;;;16.65;3.55;;;22.10;50.70;;;;;;8465528;27;20019;-45
2023/05/30 18:44:36;;;;;;;15.90;3.60;;;22.20;52.40;;;;;;8453329;28;20033;-44
2023/05/30 18:48:37;;;;;;;14.40;7.82;;;22.20;52.30;;;;;;8459984;28;20039;-45
2023/05/30 18:52:37;;;;;;;64.55;26.20;;;22.30;52.20;;;;;;8465828;28;20027;-44
2023/05/30 18:56:38;;;;;;;70.15;29.02;;;22.40;52.30;;;;;;8463034;27;20032;-43
2023/05/30 19:00:38;;;;;;;69.25;30.75;;;22.40;53.10;;;;;;8471237;27;20027;-43
2023/05/30 19:04:40;;;;;;;85.85;33.30;;;22.50;52.80;;;;;;8468149;27;20043;-43
2023/05/30 19:08:40;;;;;;;70.13;31.27;;;22.50;52.40;;;;;;8455323;27;20031;-48
2023/05/30 19:12:41;;;;;;;66.10;29.13;;;22.50;52.60;;;;;;8466439;27;20041;-46
2023/05/30 19:16:41;;;;;;;61.33;29.67;;;22.60;53.00;;;;;;8471489;27;20056;-46
2023/05/30 19:20:42;;;;;;;63.90;27.75;;;22.50;52.20;;;;;;8476929;27;20050;-43
2023/05/30 19:24:43;;;;;;;57.05;23.52;;;22.60;52.40;;;;;;8458530;27;20081;-46
2023/05/30 19:28:43;;;;;;;49.58;22.15;;;22.60;52.10;;;;;;8470490;27;20035;-44
2023/05/30 19:32:44;;;;;;;47.47;20.20;;;22.50;52.20;;;;;;8471493;27;20047;-45
2023/05/30 19:36:45;;;;;;;44.47;19.25;;;22.50;52.20;;;;;;8465343;27;20036;-45
2023/05/30 19:40:45;;;;;;;48.45;20.25;;;22.60;51.80;;;;;;8466903;27;20032;-45
2023/05/30 19:44:46;;;;;;;43.60;17.00;;;22.60;51.50;;;;;;8473842;27;20081;-48
2023/05/30 19:48:47;;;;;;;41.47;16.05;;;22.50;51.00;;;;;;8470776;27;20031;-47
2023/05/30 19:52:47;;;;;;;29.65;13.02;;;22.50;50.70;;;;;;8464003;27;20475;-47
2023/05/30 19:56:49;;;;;;;34.05;12.68;;;22.50;50.40;;;;;;8440228;27;20032;-48
2023/05/30 20:00:50;;;;;;;35.17;13.02;;;22.50;50.20;;;;;;8447071;27;20028;-47
2023/05/30 20:04:51;;;;;;;42.80;15.68;;;22.50;50.30;;;;;;8454847;27;20047;-49
2023/05/30 20:08:53;;;;;;;42.08;16.30;;;22.50;50.60;;;;;;8468724;27;20055;-50
2023/05/30 20:12:54;;;;;;;58.42;18.98;;;22.60;51.00;;;;;;8416355;28;20040;-48
2023/05/30 20:16:55;;;;;;;53.08;18.20;;;22.50;51.10;;;;;;8431173;28;20520;-48
2023/05/30 20:20:55;;;;;;;51.42;17.60;;;22.60;51.50;;;;;;8431041;28;20028;-47
2023/05/30 20:24:56;;;;;;;53.95;19.85;;;22.50;52.10;;;;;;8430709;28;20100;-50
2023/05/30 20:28:57;;;;;;;59.92;21.98;;;22.50;52.20;;;;;;8445787;28;20031;-49
2023/05/30 20:32:59;;;;;;;62.53;22.70;;;22.50;52.10;;;;;;8461750;28;20035;-51
2023/05/30 20:37:00;;;;;;;60.70;21.95;;;22.60;52.40;;;;;;8466126;28;20038;-52
2023/05/30 20:41:01;;;;;;;65.65;24.48;;;22.50;52.60;;;;;;8450200;28;20036;-51
2023/05/30 20:45:02;;;;;;;58.55;24.65;;;22.50;52.60;;;;;;8434502;28;20039;-51
2023/05/30 20:49:03;;;;;;;61.25;23.52;;;22.50;52.70;;;;;;8431559;28;20082;-53
2023/05/30 20:53:03;;;;;;;65.97;22.50;;;22.50;52.70;;;;;;8439194;27;20024;-51
2023/05/30 20:57:25;;;;;;;61.05;25.98;;;22.50;52.90;;;;;;8464699;28;20030;-54
2023/05/30 21:01:25;;;;;;;;;;;22.40;52.70;;;;;;8465684;28;20116;-51